Cut Bank Municipal Airport
KCTB : now visible

Airfield :











YOU CAN JOIN US ON...

 
LOGIN :

Register | Disclaimer

   EN    FR    IT 

 









Legend :    VFR   Marginal VFR   IFR   Intensive IFR   Very Intensive IFR
Visi :
Ceiling :
>= 8 km
>= 3000ft
5 to 8 km
1000 to 3000 ft
1500m to 5 km
500 to 1000 ft
800 to 1500m
200 to 500 ft
< 800m
< 200 ft
Symbols :   Thunderstorms  Fog  Heavy snow  Heavy precipitations  Wind > 20 kt







- Airport Elevation : 3854 ft


KCTB - Cut Bank Municipal

CURRENT METAR :
  • 260356Z AUTO 28007KT 10SM CLR 10/06 A3005 RMK AO2 SLP168 T01000061

EXPIRED METARs :
  • 260256Z AUTO 00000KT 10SM CLR 12/07 A3004 RMK AO2 SLP164 T01220072 51018
  • 260156Z AUTO 32005KT 10SM SCT120 13/07 A3002 RMK AO2 SLP157 T01330072

TAF KCTB
Valid from the 26 at 00:00 until the 27 at 00:00 UTC


252320Z 2600/2624 32010KT P6SM SCT070 BKN100
FM261000 VRB05KT P6SM SCT040 BKN080
PROB30 2618/2624 -SHRA BKN040
No reported NOTAMs for that airfield.



MET'MAP, your aeronautical weather chart ! - Copyright ORBIFLY December 2007 - Disclaimer

ORBIFLY MET'MAP TEAM :

Programming & Development : Alexandra Zaïnal
Concept & Development : Baudouin d'Aumeries
Co-Development & Prog : Marc-Olivier Méhu
Technical & hardware support : Manuel Goepfert

Contact : metmap@orbifly.com




SOURCES & CREDITS :

   NOAA       Earth
Advisory